createdAt,value
2022-11-29T00:00:23.861Z,11.75
2022-11-29T00:03:27.723Z,10.40
2022-11-29T00:06:33.066Z,12.68
2022-11-29T00:09:35.780Z,11.05
2022-11-29T00:12:38.386Z,19.15
2022-11-29T00:15:41.431Z,12.10
2022-11-29T00:18:43.889Z,14.65
2022-11-29T00:21:46.635Z,10.93
2022-11-29T00:24:49.175Z,12.57
2022-11-29T00:27:52.011Z,15.40
2022-11-29T00:30:54.943Z,12.75
2022-11-29T00:34:02.272Z,12.15
2022-11-29T00:37:04.924Z,14.13
2022-11-29T00:40:08.589Z,9.30
2022-11-29T00:43:10.997Z,14.32
2022-11-29T00:46:13.718Z,12.05
2022-11-29T00:49:16.431Z,12.82
2022-11-29T00:52:19.259Z,12.57
2022-11-29T00:55:21.700Z,18.70
2022-11-29T00:58:24.573Z,8.32
2022-11-29T01:01:27.302Z,16.95
2022-11-29T01:04:30.194Z,8.30
2022-11-29T01:07:32.613Z,9.80
2022-11-29T01:10:35.390Z,11.38
2022-11-29T01:13:38.054Z,11.57
2022-11-29T01:16:40.940Z,15.10
2022-11-29T01:19:49.310Z,13.32
2022-11-29T01:22:53.467Z,11.75
2022-11-29T01:26:17.698Z,11.98
2022-11-29T01:29:20.693Z,11.02
2022-11-29T01:32:23.139Z,12.23
2022-11-29T01:35:25.872Z,8.63
2022-11-29T01:38:28.534Z,11.75
2022-11-29T01:41:33.771Z,9.70
2022-11-29T01:44:36.158Z,13.93
2022-11-29T01:47:43.778Z,9.98
2022-11-29T01:50:46.374Z,10.48
2022-11-29T01:53:49.255Z,8.68
2022-11-29T01:56:52.923Z,12.07
2022-11-29T02:00:02.296Z,9.90
2022-11-29T02:03:17.568Z,7.00
2022-11-29T02:06:20.782Z,10.52
2022-11-29T02:09:23.667Z,10.82
2022-11-29T02:12:43.283Z,6.20
2022-11-29T02:15:54.133Z,5.35
2022-11-29T02:19:53.420Z,10.23
2022-11-29T02:23:04.777Z,8.32
2022-11-29T02:26:41.412Z,6.35
2022-11-29T02:30:05.800Z,12.80
2022-11-29T02:33:31.993Z,6.47
2022-11-29T02:36:42.572Z,5.90
2022-11-29T02:39:51.227Z,5.60
2022-11-29T02:46:18.374Z,5.47
2022-11-29T02:49:45.416Z,7.87
2022-11-29T02:52:53.299Z,7.63
2022-11-29T02:56:26.480Z,10.63
2022-11-29T02:59:52.863Z,7.60
2022-11-29T03:03:10.300Z,6.97
2022-11-29T03:06:32.211Z,7.18
2022-11-29T03:10:09.336Z,11.50
2022-11-29T03:13:47.523Z,11.10
2022-11-29T03:17:08.615Z,12.35
2022-11-29T03:20:20.029Z,7.05
2022-11-29T03:23:59.779Z,9.32
2022-11-29T03:27:09.419Z,5.35
2022-11-29T03:30:14.736Z,7.80
2022-11-29T03:33:38.015Z,6.82
2022-11-29T03:36:56.478Z,7.72
2022-11-29T03:40:08.069Z,9.38
2022-11-29T03:43:17.054Z,5.30
2022-11-29T03:46:42.400Z,7.85
2022-11-29T03:50:05.202Z,8.23
2022-11-29T03:53:25.990Z,5.25
2022-11-29T03:56:37.045Z,7.05
2022-11-29T04:00:02.292Z,9.10
2022-11-29T04:03:33.573Z,12.13
2022-11-29T04:07:13.356Z,8.55
2022-11-29T04:10:43.341Z,10.27
2022-11-29T04:14:27.719Z,8.35
2022-11-29T04:18:14.971Z,7.53
2022-11-29T04:21:46.324Z,11.88
2022-11-29T04:25:10.684Z,5.50
2022-11-29T04:28:40.963Z,9.60
2022-11-29T04:31:58.305Z,6.47
2022-11-29T04:35:32.858Z,9.45
2022-11-29T04:38:35.278Z,7.70
2022-11-29T04:41:48.610Z,13.02
2022-11-29T04:45:06.032Z,6.45
2022-11-29T04:48:23.816Z,8.80
2022-11-29T04:51:35.297Z,7.43
2022-11-29T04:54:48.716Z,10.45
2022-11-29T04:58:09.744Z,11.32
2022-11-29T05:01:21.725Z,10.55
2022-11-29T05:05:08.043Z,9.13
2022-11-29T05:08:22.645Z,9.23
2022-11-29T05:12:10.555Z,13.90
2022-11-29T05:18:30.364Z,4.03
2022-11-29T05:21:38.700Z,4.40
2022-11-29T05:24:59.980Z,12.18
2022-11-29T05:28:10.412Z,6.12
2022-11-29T05:31:31.895Z,14.38
2022-11-29T05:34:54.559Z,8.45
2022-11-29T05:38:20.425Z,9.18
2022-11-29T05:41:44.963Z,14.13
2022-11-29T05:45:08.517Z,8.40
2022-11-29T05:48:18.854Z,7.10
2022-11-29T05:51:25.428Z,5.12
2022-11-29T05:54:42.452Z,10.10
2022-11-29T05:58:27.078Z,14.38
2022-11-29T06:01:41.869Z,6.75
2022-11-29T06:05:09.629Z,8.05
2022-11-29T06:08:36.518Z,8.30
2022-11-29T06:11:44.960Z,8.40
2022-11-29T06:15:16.457Z,8.40
2022-11-29T06:18:46.751Z,5.10
2022-11-29T06:22:01.546Z,8.55
2022-11-29T06:25:36.130Z,6.97
2022-11-29T06:28:46.330Z,10.27
2022-11-29T06:32:31.906Z,7.35
2022-11-29T06:35:34.988Z,9.80
2022-11-29T06:38:38.107Z,5.80
2022-11-29T06:41:40.620Z,8.35
2022-11-29T06:44:44.137Z,8.77
2022-11-29T06:48:00.155Z,12.37
2022-11-29T06:51:28.978Z,8.45
2022-11-29T06:54:48.461Z,9.07
2022-11-29T06:58:06.017Z,8.85
2022-11-29T07:01:18.930Z,10.85
2022-11-29T07:04:34.213Z,6.90
2022-11-29T07:07:37.033Z,14.60
2022-11-29T07:10:41.539Z,11.88
2022-11-29T07:13:44.254Z,11.43
2022-11-29T07:17:07.201Z,12.13
2022-11-29T07:20:18.542Z,13.05
2022-11-29T07:23:42.715Z,7.95
2022-11-29T07:27:01.701Z,9.32
2022-11-29T07:30:19.942Z,11.90
2022-11-29T07:33:47.956Z,9.05
2022-11-29T07:39:59.338Z,5.62
2022-11-29T07:43:02.205Z,13.02
2022-11-29T07:46:04.691Z,7.93
2022-11-29T07:49:10.364Z,11.43
2022-11-29T07:52:14.777Z,7.72
2022-11-29T07:55:20.440Z,7.82
2022-11-29T07:58:23.937Z,7.32
2022-11-29T08:01:26.844Z,11.88
2022-11-29T08:04:30.011Z,8.48
2022-11-29T08:07:35.705Z,8.25
2022-11-29T08:10:38.757Z,6.85
2022-11-29T08:13:41.444Z,8.60
2022-11-29T08:16:44.218Z,12.65
2022-11-29T08:19:46.687Z,11.00
2022-11-29T08:22:58.373Z,8.23
2022-11-29T08:26:02.262Z,14.38
2022-11-29T08:29:04.937Z,14.93
2022-11-29T08:32:09.038Z,12.73
2022-11-29T08:35:11.934Z,10.95
2022-11-29T08:38:14.393Z,8.88
2022-11-29T08:41:17.613Z,18.25
2022-11-29T08:44:20.199Z,16.67
2022-11-29T08:47:38.168Z,17.25
2022-11-29T08:50:40.593Z,13.88
2022-11-29T08:53:43.529Z,13.90
2022-11-29T09:00:09.664Z,11.73
2022-11-29T09:03:31.446Z,17.23
2022-11-29T09:06:41.763Z,15.63
2022-11-29T09:09:44.438Z,15.13
2022-11-29T09:12:48.351Z,13.23
2022-11-29T09:15:50.877Z,9.18
2022-11-29T09:18:55.945Z,15.82
2022-11-29T09:21:58.529Z,14.68
2022-11-29T09:25:04.409Z,11.88
2022-11-29T09:28:07.457Z,11.75
2022-11-29T09:31:13.286Z,14.60
2022-11-29T09:34:16.844Z,15.73
2022-11-29T09:37:19.563Z,16.37
2022-11-29T09:40:30.908Z,14.23
2022-11-29T09:43:48.729Z,16.27
2022-11-29T09:47:09.006Z,11.47
2022-11-29T09:50:36.912Z,16.90
2022-11-29T09:54:18.102Z,12.90
2022-11-29T09:57:26.333Z,7.80
2022-11-29T10:00:30.665Z,14.77
2022-11-29T10:03:44.541Z,12.02
2022-11-29T10:07:01.989Z,13.25
2022-11-29T10:10:20.563Z,12.05
2022-11-29T10:13:29.673Z,13.75
2022-11-29T10:16:44.650Z,20.52
2022-11-29T10:19:52.984Z,17.65
2022-11-29T10:26:20.306Z,10.27
2022-11-29T10:29:23.695Z,15.05
2022-11-29T10:32:30.922Z,11.93
2022-11-29T10:35:33.695Z,14.27
2022-11-29T10:38:36.609Z,10.77
2022-11-29T10:41:39.343Z,13.55
2022-11-29T10:44:42.053Z,12.52
2022-11-29T10:47:47.155Z,17.05
2022-11-29T10:50:52.001Z,11.12
2022-11-29T10:53:56.319Z,14.25
2022-11-29T10:57:01.500Z,16.40
2022-11-29T11:00:10.691Z,16.75
2022-11-29T11:03:24.533Z,21.12
2022-11-29T11:06:43.716Z,26.27
2022-11-29T11:09:53.380Z,13.25
2022-11-29T11:13:19.055Z,15.02
2022-11-29T11:16:25.789Z,16.08
2022-11-29T11:19:32.016Z,14.93
2022-11-29T11:22:39.313Z,10.00
2022-11-29T11:25:42.137Z,20.33
2022-11-29T11:29:01.666Z,14.20
2022-11-29T11:32:05.275Z,11.85
2022-11-29T11:35:22.753Z,13.52
2022-11-29T11:38:25.744Z,11.68
2022-11-29T11:41:54.202Z,12.30
2022-11-29T11:44:56.987Z,17.52
2022-11-29T11:48:11.970Z,11.52
2022-11-29T11:51:25.758Z,15.25
2022-11-29T11:54:29.571Z,10.45
2022-11-29T11:57:32.509Z,16.75
2022-11-29T12:01:13.426Z,19.33
2022-11-29T12:04:24.981Z,16.45
2022-11-29T12:08:06.168Z,11.75
2022-11-29T12:11:07.197Z,17.02
2022-11-29T12:14:21.624Z,24.58
2022-11-29T12:17:46.196Z,13.90
2022-11-29T12:20:59.247Z,18.58
2022-11-29T12:24:10.556Z,17.08
2022-11-29T12:27:15.573Z,15.75
2022-11-29T12:30:19.851Z,17.67
2022-11-29T12:33:49.979Z,13.15
2022-11-29T12:37:11.631Z,11.45
2022-11-29T12:40:58.646Z,13.18
2022-11-29T12:44:10.223Z,18.90
2022-11-29T12:47:37.913Z,15.13
2022-11-29T12:51:06.083Z,13.23
2022-11-29T12:54:16.019Z,14.48
2022-11-29T12:57:21.635Z,18.20
2022-11-29T13:00:28.868Z,16.23
2022-11-29T13:03:59.387Z,17.80
2022-11-29T13:07:13.753Z,13.38
2022-11-29T13:10:48.346Z,13.15
2022-11-29T13:14:34.611Z,14.80
2022-11-29T13:17:32.145Z,18.45
2022-11-29T13:21:24.135Z,12.55
2022-11-29T13:24:42.927Z,17.87
2022-11-29T13:31:18.289Z,14.55
2022-11-29T13:34:42.752Z,14.45
2022-11-29T13:37:55.465Z,14.40
2022-11-29T13:41:30.898Z,17.65
2022-11-29T13:44:44.564Z,20.80
2022-11-29T13:48:10.877Z,15.32
2022-11-29T13:51:28.328Z,18.45
2022-11-29T13:54:33.694Z,16.77
2022-11-29T14:01:21.570Z,13.93
2022-11-29T14:04:41.465Z,14.13
2022-11-29T14:08:21.467Z,15.27
2022-11-29T14:11:28.947Z,10.70
2022-11-29T14:14:59.261Z,18.12
2022-11-29T14:18:08.245Z,17.45
2022-11-29T14:21:11.369Z,17.37
2022-11-29T14:24:32.536Z,17.08
2022-11-29T14:27:34.894Z,15.32
2022-11-29T14:30:43.755Z,16.80
2022-11-29T14:33:46.459Z,12.20
2022-11-29T14:36:59.005Z,15.65
2022-11-29T14:40:12.387Z,16.40
2022-11-29T14:43:36.676Z,20.58
2022-11-29T14:46:39.240Z,20.73
2022-11-29T14:49:45.409Z,17.65
2022-11-29T14:52:52.360Z,16.92
2022-11-29T14:56:47.463Z,14.73
2022-11-29T14:59:54.303Z,13.68
2022-11-29T15:03:01.256Z,18.02
2022-11-29T15:06:03.698Z,18.65
2022-11-29T15:09:17.185Z,15.57
2022-11-29T15:12:28.826Z,17.10
2022-11-29T15:15:50.259Z,17.77
2022-11-29T15:19:30.608Z,17.12
2022-11-29T15:23:01.684Z,12.80
2022-11-29T15:26:04.171Z,19.83
2022-11-29T15:29:19.203Z,17.00
2022-11-29T15:32:25.980Z,17.75
2022-11-29T15:35:29.668Z,14.40
2022-11-29T15:38:43.030Z,22.83
2022-11-29T15:41:45.818Z,22.05
2022-11-29T15:44:49.105Z,18.83
2022-11-29T15:47:52.750Z,22.30
2022-11-29T15:51:22.130Z,18.15
2022-11-29T15:54:29.022Z,14.95
2022-11-29T15:57:34.254Z,14.65
2022-11-29T16:00:37.470Z,19.83
2022-11-29T16:03:43.515Z,22.67
2022-11-29T16:06:47.486Z,18.30
2022-11-29T16:09:57.174Z,17.10
2022-11-29T16:13:06.297Z,14.35
2022-11-29T16:16:14.036Z,17.90
2022-11-29T16:19:30.150Z,18.20
2022-11-29T16:22:32.904Z,20.90
2022-11-29T16:25:50.743Z,14.23
2022-11-29T16:28:57.777Z,17.33
2022-11-29T16:32:11.508Z,13.10
2022-11-29T16:35:21.039Z,22.15
2022-11-29T16:38:23.834Z,20.98
2022-11-29T16:41:38.035Z,22.13
2022-11-29T16:44:40.451Z,18.55
2022-11-29T16:48:01.545Z,20.85
2022-11-29T16:51:09.758Z,18.02
2022-11-29T16:57:22.588Z,16.70
2022-11-29T17:00:31.601Z,23.58
2022-11-29T17:03:34.535Z,23.48
2022-11-29T17:06:38.183Z,22.52
2022-11-29T17:09:41.101Z,17.52
2022-11-29T17:12:48.201Z,17.67
2022-11-29T17:15:50.944Z,25.92
2022-11-29T17:18:53.874Z,27.30
2022-11-29T17:21:56.517Z,23.00
2022-11-29T17:24:59.201Z,17.02
2022-11-29T17:28:01.757Z,21.80
2022-11-29T17:31:18.664Z,26.10
2022-11-29T17:34:21.333Z,20.85
2022-11-29T17:37:24.085Z,24.65
2022-11-29T17:40:27.486Z,21.77
2022-11-29T17:43:30.277Z,26.58
2022-11-29T17:46:35.374Z,27.92
2022-11-29T17:49:38.149Z,22.90
2022-11-29T17:52:41.231Z,22.10
2022-11-29T17:55:43.958Z,27.92
2022-11-29T17:58:46.439Z,27.77
2022-11-29T18:01:49.430Z,21.02
2022-11-29T18:04:52.283Z,28.30
2022-11-29T18:08:00.413Z,23.48
2022-11-29T18:14:11.457Z,17.42
2022-11-29T18:17:14.263Z,16.80
2022-11-29T18:20:16.802Z,17.33
2022-11-29T18:23:19.542Z,23.92
2022-11-29T18:26:24.469Z,29.98
2022-11-29T18:29:28.686Z,19.83
2022-11-29T18:32:33.251Z,19.20
2022-11-29T18:35:36.027Z,20.58
2022-11-29T18:38:39.951Z,18.62
2022-11-29T18:41:45.157Z,25.23
2022-11-29T18:44:47.818Z,23.35
2022-11-29T18:47:50.772Z,19.87
2022-11-29T18:50:53.254Z,15.60
2022-11-29T18:53:56.899Z,22.52
2022-11-29T18:56:59.625Z,20.95
2022-11-29T19:00:03.494Z,22.23
2022-11-29T19:03:06.285Z,21.90
2022-11-29T19:06:14.921Z,18.60
2022-11-29T19:09:21.360Z,28.20
2022-11-29T19:12:24.447Z,18.62
2022-11-29T19:15:26.879Z,20.65
2022-11-29T19:18:30.047Z,18.80
2022-11-29T19:21:34.475Z,22.55
2022-11-29T19:24:37.647Z,25.75
2022-11-29T19:27:40.749Z,19.52
2022-11-29T19:30:43.776Z,18.45
2022-11-29T19:33:47.057Z,21.73
2022-11-29T19:36:49.800Z,22.35
2022-11-29T19:39:52.608Z,20.85
2022-11-29T19:42:55.362Z,16.50
2022-11-29T19:45:57.867Z,18.08
2022-11-29T19:49:01.618Z,17.50
2022-11-29T19:52:04.989Z,22.27
2022-11-29T19:55:08.145Z,19.90
2022-11-29T19:58:10.704Z,22.15
2022-11-29T20:01:25.263Z,18.17
2022-11-29T20:04:28.174Z,21.20
2022-11-29T20:07:30.693Z,21.55
2022-11-29T20:10:34.428Z,22.10
2022-11-29T20:13:38.362Z,20.33
2022-11-29T20:16:41.971Z,24.00
2022-11-29T20:19:44.789Z,26.90
2022-11-29T20:22:47.878Z,26.12
2022-11-29T20:25:51.467Z,22.62
2022-11-29T20:28:54.300Z,23.10
2022-11-29T20:31:56.890Z,20.65
2022-11-29T20:35:02.442Z,23.27
2022-11-29T20:38:41.334Z,18.92
2022-11-29T20:41:53.134Z,20.88
2022-11-29T20:44:57.349Z,21.25
2022-11-29T20:48:15.307Z,25.35
2022-11-29T20:51:17.985Z,19.95
2022-11-29T20:54:20.808Z,19.27
2022-11-29T20:57:23.520Z,24.37
2022-11-29T21:00:26.462Z,20.35
2022-11-29T21:03:29.879Z,21.33
2022-11-29T21:06:37.281Z,24.98
2022-11-29T21:09:39.726Z,21.90
2022-11-29T21:12:45.564Z,26.35
2022-11-29T21:15:48.840Z,26.35
2022-11-29T21:18:54.190Z,24.30
2022-11-29T21:22:27.453Z,25.40
2022-11-29T21:25:51.638Z,26.08
2022-11-29T21:29:07.429Z,24.50
2022-11-29T21:32:22.094Z,25.10
2022-11-29T21:35:24.594Z,16.85
2022-11-29T21:38:29.089Z,19.27
2022-11-29T21:41:31.735Z,21.67
2022-11-29T21:44:34.527Z,24.50
2022-11-29T21:47:36.982Z,22.15
2022-11-29T21:50:39.793Z,19.23
2022-11-29T21:53:45.246Z,20.95
2022-11-29T21:56:48.049Z,26.80
2022-11-29T21:59:50.610Z,26.12
2022-11-29T22:02:53.454Z,23.42
2022-11-29T22:06:01.831Z,23.95
2022-11-29T22:09:04.942Z,21.75
2022-11-29T22:12:31.846Z,22.13
2022-11-29T22:15:31.886Z,19.08
2022-11-29T22:18:35.553Z,23.85
2022-11-29T22:21:43.097Z,22.27
2022-11-29T22:24:46.181Z,22.95
2022-11-29T22:27:49.139Z,22.45
2022-11-29T22:30:51.822Z,26.12
2022-11-29T22:33:55.129Z,25.73
2022-11-29T22:36:57.941Z,24.80
2022-11-29T22:40:00.573Z,22.65
2022-11-29T22:43:03.302Z,24.30
2022-11-29T22:46:23.472Z,21.50
2022-11-29T22:49:26.323Z,23.48
2022-11-29T22:52:28.862Z,21.90
2022-11-29T22:55:31.846Z,25.95
2022-11-29T22:58:34.874Z,22.37
2022-11-29T23:01:40.056Z,28.42
2022-11-29T23:04:44.098Z,25.70
2022-11-29T23:07:47.371Z,18.55
2022-11-29T23:10:57.266Z,22.23
2022-11-29T23:14:00.062Z,24.40
2022-11-29T23:17:02.513Z,25.67
2022-11-29T23:20:06.165Z,24.05
2022-11-29T23:23:09.567Z,26.00
2022-11-29T23:26:38.816Z,24.40
2022-11-29T23:29:41.294Z,22.92
2022-11-29T23:32:43.997Z,21.95
2022-11-29T23:35:46.583Z,20.55
2022-11-29T23:38:49.499Z,24.05
2022-11-29T23:41:51.979Z,19.17
2022-11-29T23:44:54.720Z,22.23
2022-11-29T23:47:57.759Z,21.20
2022-11-29T23:51:01.716Z,24.75
2022-11-29T23:54:04.366Z,19.20
2022-11-29T23:57:07.441Z,17.23
